N0,26 Fumimaru — JK5398 — position and weather

sailwx.info

Track history (hours):
 
Tides and Currents Weather Stations Pressure Air Temp Water Temp Dewpoint Dewpoint Depression Visibility Wind Speed Wind Dir Waves Ship Positions

N0,26 Fumimaru

Last reported at 2014-Oct-19 22:28 UTC. Time now 2014-Oct-31 08:30 UTC.
Position N 34°15' E 132°26'.
Warning: this ship's position is 11 days out of date.

Length 39 m; draft 3.6 m.

Type: Ship. MMSI: 431400427.

Date/timePositionNaut miles runAvg speedWind from/ knotsBaromVisibWave heightAir tempDewpointWater temp
2014-Oct-19 22:28N 34°15' E 132°26'4 3.9
2014-Oct-19 21:32N 34°16' E 132°30'128 3.0
2014-Oct-18 03:33N 34°36' E 135°03'10 9.9
2014-Oct-18 02:31N 34°37' E 135°16'6 5.8
2014-Oct-18 01:32N 34°42' E 135°20'0 0.0
2014-Oct-18 00:32N 34°42' E 135°20'1 1.0
2014-Oct-17 23:32N 34°43' E 135°20'1 0.9
2014-Oct-17 22:33N 34°42' E 135°20'3 2.5
2014-Oct-17 21:33N 34°39' E 135°19'4 3.8
2014-Oct-17 20:33N 34°36' E 135°18'5 4.4
2014-Oct-17 19:31N 34°32' E 135°15'5 4.4
2014-Oct-17 18:24N 34°28' E 135°12'  
2014-Oct-15 04:30N 35°23' E 139°42'  
Track history (hours):
 
Tides and Currents Weather Stations Pressure Air Temp Water Temp Dewpoint Dewpoint Depression Visibility Wind Speed Wind Dir Waves Ship Positions

N0,26 Fumimaru

Last reported at 2014-Oct-19 22:28 UTC. Time now 2014-Oct-31 08:30 UTC.
Position N 34°15' E 132°26'.
Warning: this ship's position is 11 days out of date.

Length 39 m; draft 3.6 m.

Type: Ship. MMSI: 431400427.

Date/timePositionNaut miles runAvg speedWind from/ knotsBaromVisibWave heightAir tempDewpointWater temp
2014-Oct-19 22:28N 34°15' E 132°26'4 3.9
2014-Oct-19 21:32N 34°16' E 132°30'128 3.0
2014-Oct-18 03:33N 34°36' E 135°03'10 9.9
2014-Oct-18 02:31N 34°37' E 135°16'6 5.8
2014-Oct-18 01:32N 34°42' E 135°20'0 0.0
2014-Oct-18 00:32N 34°42' E 135°20'1 1.0
2014-Oct-17 23:32N 34°43' E 135°20'1 0.9
2014-Oct-17 22:33N 34°42' E 135°20'3 2.5
2014-Oct-17 21:33N 34°39' E 135°19'4 3.8
2014-Oct-17 20:33N 34°36' E 135°18'5 4.4
2014-Oct-17 19:31N 34°32' E 135°15'5 4.4
2014-Oct-17 18:24N 34°28' E 135°12'  
2014-Oct-15 04:30N 35°23' E 139°42'  

Dump ship's entire track history